sensor_id;sensor_type;location;lat;lon;timestamp;pressure;altitude;pressure_sealevel;temperature;humidity
75418;BME280;63997;52.112;5.420;2023-03-12T00:01:56;101295.66;;;-0.04;84.76
75418;BME280;63997;52.112;5.420;2023-03-12T00:04:25;101291.53;;;0.00;84.93
75418;BME280;63997;52.112;5.420;2023-03-12T00:06:51;101296.28;;;0.03;84.98
75418;BME280;63997;52.112;5.420;2023-03-12T00:09:18;101278.50;;;0.05;85.11
75418;BME280;63997;52.112;5.420;2023-03-12T00:11:44;101286.16;;;0.07;85.01
75418;BME280;63997;52.112;5.420;2023-03-12T00:14:10;101279.63;;;0.09;85.24
75418;BME280;63997;52.112;5.420;2023-03-12T00:16:37;101280.75;;;0.13;85.15
75418;BME280;63997;52.112;5.420;2023-03-12T00:19:03;101279.72;;;0.14;85.23
75418;BME280;63997;52.112;5.420;2023-03-12T00:21:30;101278.69;;;0.15;85.22
75418;BME280;63997;52.112;5.420;2023-03-12T00:23:56;101283.44;;;0.18;85.21
75418;BME280;63997;52.112;5.420;2023-03-12T00:26:24;101279.00;;;0.19;85.51
75418;BME280;63997;52.112;5.420;2023-03-12T00:28:50;101274.31;;;0.21;85.43
75418;BME280;63997;52.112;5.420;2023-03-12T00:31:22;101273.00;;;0.18;85.50
75418;BME280;63997;52.112;5.420;2023-03-12T00:33:49;101270.38;;;0.18;85.50
75418;BME280;63997;52.112;5.420;2023-03-12T00:36:17;101260.44;;;0.20;85.45
75418;BME280;63997;52.112;5.420;2023-03-12T00:38:44;101266.81;;;0.24;85.50
75418;BME280;63997;52.112;5.420;2023-03-12T00:41:10;101270.75;;;0.27;85.87
75418;BME280;63997;52.112;5.420;2023-03-12T00:43:37;101266.31;;;0.28;85.88
75418;BME280;63997;52.112;5.420;2023-03-12T00:46:04;101269.50;;;0.30;85.79
75418;BME280;63997;52.112;5.420;2023-03-12T00:48:30;101265.84;;;0.31;85.92
75418;BME280;63997;52.112;5.420;2023-03-12T00:50:57;101267.41;;;0.32;85.91
75418;BME280;63997;52.112;5.420;2023-03-12T00:53:23;101268.22;;;0.32;86.04
75418;BME280;63997;52.112;5.420;2023-03-12T00:55:49;101261.72;;;0.35;86.01
75418;BME280;63997;52.112;5.420;2023-03-12T00:58:16;101266.38;;;0.33;85.82
75418;BME280;63997;52.112;5.420;2023-03-12T01:00:42;101261.41;;;0.31;85.85
75418;BME280;63997;52.112;5.420;2023-03-12T01:03:09;101258.47;;;0.28;85.63
75418;BME280;63997;52.112;5.420;2023-03-12T01:05:35;101254.75;;;0.23;85.60
75418;BME280;63997;52.112;5.420;2023-03-12T01:08:04;101252.84;;;0.19;85.47
75418;BME280;63997;52.112;5.420;2023-03-12T01:10:30;101242.84;;;0.16;85.42
75418;BME280;63997;52.112;5.420;2023-03-12T01:12:57;101238.91;;;0.13;85.34
75418;BME280;63997;52.112;5.420;2023-03-12T01:15:24;101221.66;;;0.12;85.45
75418;BME280;63997;52.112;5.420;2023-03-12T01:17:50;101227.34;;;0.09;85.49
75418;BME280;63997;52.112;5.420;2023-03-12T01:20:17;101220.03;;;0.11;85.39
75418;BME280;63997;52.112;5.420;2023-03-12T01:22:43;101219.09;;;0.17;85.00
75418;BME280;63997;52.112;5.420;2023-03-12T01:25:10;101229.41;;;0.24;84.44
75418;BME280;63997;52.112;5.420;2023-03-12T01:27:37;101228.69;;;0.29;83.97
75418;BME280;63997;52.112;5.420;2023-03-12T01:30:04;101225.09;;;0.35;83.37
75418;BME280;63997;52.112;5.420;2023-03-12T01:32:31;101226.44;;;0.37;82.78
75418;BME280;63997;52.112;5.420;2023-03-12T01:34:57;101233.88;;;0.45;82.55
75418;BME280;63997;52.112;5.420;2023-03-12T01:37:26;101233.13;;;0.50;82.49
75418;BME280;63997;52.112;5.420;2023-03-12T01:39:52;101237.34;;;0.51;82.63
75418;BME280;63997;52.112;5.420;2023-03-12T01:42:19;101231.31;;;0.50;82.47
75418;BME280;63997;52.112;5.420;2023-03-12T01:44:56;101223.78;;;0.54;82.25
75418;BME280;63997;52.112;5.420;2023-03-12T01:47:24;101224.31;;;0.56;81.93
75418;BME280;63997;52.112;5.420;2023-03-12T01:49:53;101217.03;;;0.58;82.01
75418;BME280;63997;52.112;5.420;2023-03-12T01:52:27;101215.50;;;0.62;82.44
75418;BME280;63997;52.112;5.420;2023-03-12T01:55:05;101215.50;;;0.62;83.04
75418;BME280;63997;52.112;5.420;2023-03-12T01:57:35;101210.28;;;0.62;83.04
75418;BME280;63997;52.112;5.420;2023-03-12T02:00:07;101206.63;;;0.63;83.26
75418;BME280;63997;52.112;5.420;2023-03-12T02:02:35;101204.53;;;0.65;82.68
75418;BME280;63997;52.112;5.420;2023-03-12T02:05:16;101202.00;;;0.70;82.31
75418;BME280;63997;52.112;5.420;2023-03-12T02:07:46;101196.28;;;0.73;82.23
75418;BME280;63997;52.112;5.420;2023-03-12T02:10:12;101192.13;;;0.77;82.04
75418;BME280;63997;52.112;5.420;2023-03-12T02:12:39;101193.22;;;0.82;81.66
75418;BME280;63997;52.112;5.420;2023-03-12T02:15:06;101183.53;;;0.82;81.46
75418;BME280;63997;52.112;5.420;2023-03-12T02:17:34;101183.06;;;0.85;81.46
75418;BME280;63997;52.112;5.420;2023-03-12T02:20:26;101175.75;;;0.87;81.17
75418;BME280;63997;52.112;5.420;2023-03-12T02:23:05;101167.16;;;0.92;80.92
75418;BME280;63997;52.112;5.420;2023-03-12T02:25:43;101173.50;;;0.96;81.60
75418;BME280;63997;52.112;5.420;2023-03-12T02:28:14;101165.06;;;0.94;81.93
75418;BME280;63997;52.112;5.420;2023-03-12T02:30:42;101167.94;;;0.92;82.44
75418;BME280;63997;52.112;5.420;2023-03-12T02:33:10;101155.09;;;0.91;82.42
75418;BME280;63997;52.112;5.420;2023-03-12T02:35:37;101153.81;;;0.93;82.00
75418;BME280;63997;52.112;5.420;2023-03-12T02:41:28;101147.09;;;1.02;81.18
75418;BME280;63997;52.112;5.420;2023-03-12T02:44:09;101147.38;;;1.06;81.22
75418;BME280;63997;52.112;5.420;2023-03-12T02:46:42;101144.28;;;1.09;80.87
75418;BME280;63997;52.112;5.420;2023-03-12T02:49:09;101140.88;;;1.09;81.13
75418;BME280;63997;52.112;5.420;2023-03-12T02:51:38;101143.25;;;1.10;81.40
75418;BME280;63997;52.112;5.420;2023-03-12T02:54:05;101135.13;;;1.12;81.67
75418;BME280;63997;52.112;5.420;2023-03-12T02:56:32;101133.84;;;1.14;81.09
75418;BME280;63997;52.112;5.420;2023-03-12T02:58:59;101134.94;;;1.18;80.43
75418;BME280;63997;52.112;5.420;2023-03-12T03:01:29;101125.78;;;1.21;80.62
75418;BME280;63997;52.112;5.420;2023-03-12T03:04:00;101123.66;;;1.18;80.79
75418;BME280;63997;52.112;5.420;2023-03-12T03:06:27;101110.31;;;1.19;80.71
75418;BME280;63997;52.112;5.420;2023-03-12T03:08:54;101107.72;;;1.19;80.42
75418;BME280;63997;52.112;5.420;2023-03-12T03:11:20;101107.25;;;1.27;80.14
75418;BME280;63997;52.112;5.420;2023-03-12T03:13:51;101113.31;;;1.33;79.13
75418;BME280;63997;52.112;5.420;2023-03-12T03:16:18;101106.25;;;1.33;79.14
75418;BME280;63997;52.112;5.420;2023-03-12T03:18:45;101107.03;;;1.34;78.97
75418;BME280;63997;52.112;5.420;2023-03-12T03:21:12;101103.63;;;1.33;79.16
75418;BME280;63997;52.112;5.420;2023-03-12T03:23:43;101098.38;;;1.33;79.01
75418;BME280;63997;52.112;5.420;2023-03-12T03:26:10;101102.03;;;1.32;79.00
75418;BME280;63997;52.112;5.420;2023-03-12T03:28:36;101090.50;;;1.33;78.99
75418;BME280;63997;52.112;5.420;2023-03-12T03:31:03;101083.22;;;1.36;78.86
75418;BME280;63997;52.112;5.420;2023-03-12T03:33:32;101074.84;;;1.39;78.42
75418;BME280;63997;52.112;5.420;2023-03-12T03:36:00;101070.41;;;1.44;77.92
75418;BME280;63997;52.112;5.420;2023-03-12T03:38:28;101068.34;;;1.46;77.92
75418;BME280;63997;52.112;5.420;2023-03-12T03:40:55;101069.16;;;1.47;77.95
75418;BME280;63997;52.112;5.420;2023-03-12T03:43:21;101063.63;;;1.48;77.58
75418;BME280;63997;52.112;5.420;2023-03-12T03:45:48;101061.31;;;1.52;77.76
75418;BME280;63997;52.112;5.420;2023-03-12T03:48:21;101053.44;;;1.52;77.58
75418;BME280;63997;52.112;5.420;2023-03-12T03:50:47;101037.19;;;1.55;77.60
75418;BME280;63997;52.112;5.420;2023-03-12T03:53:14;101042.19;;;1.56;77.38
75418;BME280;63997;52.112;5.420;2023-03-12T03:55:40;101038.53;;;1.57;77.31
75418;BME280;63997;52.112;5.420;2023-03-12T03:58:06;101038.53;;;1.57;77.36
75418;BME280;63997;52.112;5.420;2023-03-12T04:00:33;101027.25;;;1.57;77.45
75418;BME280;63997;52.112;5.420;2023-03-12T04:02:59;101037.19;;;1.55;77.74
75418;BME280;63997;52.112;5.420;2023-03-12T04:05:26;101054.75;;;1.54;77.76
75418;BME280;63997;52.112;5.420;2023-03-12T04:07:53;101043.22;;;1.55;78.05
75418;BME280;63997;52.112;5.420;2023-03-12T04:10:22;101039.81;;;1.55;77.99
75418;BME280;63997;52.112;5.420;2023-03-12T04:12:50;101046.13;;;1.54;78.28
75418;BME280;63997;52.112;5.420;2023-03-12T04:15:16;101052.66;;;1.56;78.40
75418;BME280;63997;52.112;5.420;2023-03-12T04:17:42;101046.41;;;1.63;78.07
75418;BME280;63997;52.112;5.420;2023-03-12T04:20:09;101042.50;;;1.65;78.14
75418;BME280;63997;52.112;5.420;2023-03-12T04:22:36;101045.16;;;1.70;78.05
75418;BME280;63997;52.112;5.420;2023-03-12T04:25:03;101049.34;;;1.71;78.19
75418;BME280;63997;52.112;5.420;2023-03-12T04:27:29;101036.00;;;1.73;78.57
75418;BME280;63997;52.112;5.420;2023-03-12T04:29:55;101028.13;;;1.73;78.60
75418;BME280;63997;52.112;5.420;2023-03-12T04:32:22;101030.50;;;1.74;78.55
75418;BME280;63997;52.112;5.420;2023-03-12T04:34:48;101021.81;;;1.74;78.85
75418;BME280;63997;52.112;5.420;2023-03-12T04:37:15;101018.97;;;1.75;78.73
75418;BME280;63997;52.112;5.420;2023-03-12T04:39:42;101023.69;;;1.78;78.93
75418;BME280;63997;52.112;5.420;2023-03-12T04:42:09;101021.63;;;1.80;78.89
75418;BME280;63997;52.112;5.420;2023-03-12T04:44:36;101011.13;;;1.80;79.47
75418;BME280;63997;52.112;5.420;2023-03-12T04:47:03;101016.38;;;1.80;79.54
75418;BME280;63997;52.112;5.420;2023-03-12T04:49:29;101013.19;;;1.78;79.74
75418;BME280;63997;52.112;5.420;2023-03-12T04:51:56;100990.66;;;1.77;79.91
75418;BME280;63997;52.112;5.420;2023-03-12T04:54:22;100998.78;;;1.76;80.24
75418;BME280;63997;52.112;5.420;2023-03-12T04:56:49;100979.66;;;1.75;80.93
75418;BME280;63997;52.112;5.420;2023-03-12T04:59:15;100982.50;;;1.74;80.90
75418;BME280;63997;52.112;5.420;2023-03-12T05:01:42;100976.47;;;1.73;81.35
75418;BME280;63997;52.112;5.420;2023-03-12T05:04:09;100958.13;;;1.73;81.57
75418;BME280;63997;52.112;5.420;2023-03-12T05:06:35;100950.53;;;1.72;81.83
75418;BME280;63997;52.112;5.420;2023-03-12T05:09:02;100948.16;;;1.70;81.82
75418;BME280;63997;52.112;5.420;2023-03-12T05:11:29;100943.72;;;1.71;81.85
75418;BME280;63997;52.112;5.420;2023-03-12T05:13:55;100943.19;;;1.69;82.26
75418;BME280;63997;52.112;5.420;2023-03-12T05:16:21;100944.75;;;1.70;82.29
75418;BME280;63997;52.112;5.420;2023-03-12T05:18:48;100937.69;;;1.70;82.37
75418;BME280;63997;52.112;5.420;2023-03-12T05:21:17;100934.00;;;1.71;82.49
75418;BME280;63997;52.112;5.420;2023-03-12T05:23:45;100926.66;;;1.73;82.51
75418;BME280;63997;52.112;5.420;2023-03-12T05:26:27;100935.59;;;1.72;82.64
75418;BME280;63997;52.112;5.420;2023-03-12T05:28:54;100930.88;;;1.74;82.40
75418;BME280;63997;52.112;5.420;2023-03-12T05:31:20;100928.25;;;1.74;82.62
75418;BME280;63997;52.112;5.420;2023-03-12T05:33:47;100937.69;;;1.75;82.81
75418;BME280;63997;52.112;5.420;2023-03-12T05:36:18;100930.88;;;1.74;82.93
75418;BME280;63997;52.112;5.420;2023-03-12T05:38:45;100920.13;;;1.76;82.47
75418;BME280;63997;52.112;5.420;2023-03-12T05:41:24;100926.16;;;1.76;82.57
75418;BME280;63997;52.112;5.420;2023-03-12T05:43:51;100926.69;;;1.78;82.69
75418;BME280;63997;52.112;5.420;2023-03-12T05:46:18;100926.69;;;1.78;82.75
75418;BME280;63997;52.112;5.420;2023-03-12T05:48:45;100919.38;;;1.80;82.55
75418;BME280;63997;52.112;5.420;2023-03-12T05:51:11;100915.44;;;1.83;82.69
75418;BME280;63997;52.112;5.420;2023-03-12T05:53:38;100910.47;;;1.87;82.69
75418;BME280;63997;52.112;5.420;2023-03-12T05:56:06;100908.88;;;1.91;82.42
75418;BME280;63997;52.112;5.420;2023-03-12T05:58:34;100904.19;;;1.93;82.33
75418;BME280;63997;52.112;5.420;2023-03-12T06:01:01;100901.28;;;1.94;82.56
75418;BME280;63997;52.112;5.420;2023-03-12T06:03:27;100907.31;;;1.95;82.73
75418;BME280;63997;52.112;5.420;2023-03-12T06:05:53;100911.28;;;1.97;82.81
75418;BME280;63997;52.112;5.420;2023-03-12T06:08:22;100911.00;;;1.99;82.81
75418;BME280;63997;52.112;5.420;2023-03-12T06:10:50;100908.38;;;1.99;83.09
75418;BME280;63997;52.112;5.420;2023-03-12T06:13:17;100904.72;;;2.00;83.34
75418;BME280;63997;52.112;5.420;2023-03-12T06:15:43;100908.13;;;2.00;83.61
75418;BME280;63997;52.112;5.420;2023-03-12T06:18:09;100916.00;;;2.00;83.69
75418;BME280;63997;52.112;5.420;2023-03-12T06:20:36;100918.63;;;2.00;83.97
75418;BME280;63997;52.112;5.420;2023-03-12T06:23:04;100910.75;;;2.00;84.16
75418;BME280;63997;52.112;5.420;2023-03-12T06:25:30;100911.28;;;2.02;84.17
75418;BME280;63997;52.112;5.420;2023-03-12T06:27:57;100910.25;;;2.03;84.30
75418;BME280;63997;52.112;5.420;2023-03-12T06:30:23;100911.28;;;2.02;84.42
75418;BME280;63997;52.112;5.420;2023-03-12T06:32:50;100919.94;;;2.03;84.42
75418;BME280;63997;52.112;5.420;2023-03-12T06:35:16;100904.22;;;2.03;84.66
75418;BME280;63997;52.112;5.420;2023-03-12T06:37:43;100899.47;;;2.00;84.88
75418;BME280;63997;52.112;5.420;2023-03-12T06:40:10;100899.47;;;2.00;85.50
75418;BME280;63997;52.112;5.420;2023-03-12T06:42:38;100890.81;;;1.99;85.70
75418;BME280;63997;52.112;5.420;2023-03-12T06:45:05;100891.09;;;1.98;86.26
75418;BME280;63997;52.112;5.420;2023-03-12T06:47:32;100890.81;;;1.99;86.55
75418;BME280;63997;52.112;5.420;2023-03-12T06:49:58;100888.97;;;2.00;86.81
75418;BME280;63997;52.112;5.420;2023-03-12T06:52:24;100886.34;;;2.00;87.26
75418;BME280;63997;52.112;5.420;2023-03-12T06:54:52;100884.28;;;1.97;87.94
75418;BME280;63997;52.112;5.420;2023-03-12T06:57:18;100881.66;;;1.97;88.21
75418;BME280;63997;52.112;5.420;2023-03-12T06:59:44;100872.19;;;1.96;88.49
75418;BME280;63997;52.112;5.420;2023-03-12T07:02:15;100871.16;;;1.97;88.77
75418;BME280;63997;52.112;5.420;2023-03-12T07:04:41;100865.91;;;1.97;89.08
75418;BME280;63997;52.112;5.420;2023-03-12T07:07:08;100861.19;;;1.99;89.53
75418;BME280;63997;52.112;5.420;2023-03-12T07:09:36;100861.19;;;1.99;89.59
75418;BME280;63997;52.112;5.420;2023-03-12T07:12:03;100852.53;;;1.98;90.09
75418;BME280;63997;52.112;5.420;2023-03-12T07:14:29;100847.00;;;2.00;90.14
75418;BME280;63997;52.112;5.420;2023-03-12T07:16:55;100839.94;;;2.00;90.39
75418;BME280;63997;52.112;5.420;2023-03-12T07:19:23;100829.16;;;2.02;90.52
75418;BME280;63997;52.112;5.420;2023-03-12T07:21:49;100828.66;;;2.05;90.91
75418;BME280;63997;52.112;5.420;2023-03-12T07:24:15;100830.78;;;2.08;91.09
75418;BME280;63997;52.112;5.420;2023-03-12T07:26:42;100836.81;;;2.08;91.10
75418;BME280;63997;52.112;5.420;2023-03-12T07:29:08;100852.78;;;2.12;91.50
75418;BME280;63997;52.112;5.420;2023-03-12T07:31:35;100842.06;;;2.14;91.63
75418;BME280;63997;52.112;5.420;2023-03-12T07:34:01;100846.25;;;2.15;91.87
75418;BME280;63997;52.112;5.420;2023-03-12T07:36:31;100852.00;;;2.17;92.06
75418;BME280;63997;52.112;5.420;2023-03-12T07:38:58;100850.72;;;2.19;92.26
75418;BME280;63997;52.112;5.420;2023-03-12T07:41:25;100857.53;;;2.20;92.41
75418;BME280;63997;52.112;5.420;2023-03-12T07:43:51;100852.53;;;2.24;92.44
75418;BME280;63997;52.112;5.420;2023-03-12T07:46:17;100866.19;;;2.26;92.51
75418;BME280;63997;52.112;5.420;2023-03-12T07:48:44;100873.78;;;2.27;92.49
75418;BME280;63997;52.112;5.420;2023-03-12T07:51:10;100862.78;;;2.30;92.64
75418;BME280;63997;52.112;5.420;2023-03-12T07:53:36;100878.53;;;2.30;92.67
75418;BME280;63997;52.112;5.420;2023-03-12T07:56:03;100873.53;;;2.34;92.86
75418;BME280;63997;52.112;5.420;2023-03-12T07:58:30;100873.78;;;2.37;92.90
75418;BME280;63997;52.112;5.420;2023-03-12T08:00:57;100889.00;;;2.41;93.09
75418;BME280;63997;52.112;5.420;2023-03-12T08:03:23;100890.31;;;2.43;93.04
75418;BME280;63997;52.112;5.420;2023-03-12T08:05:55;100884.81;;;2.45;93.06
75418;BME280;63997;52.112;5.420;2023-03-12T08:08:22;100879.03;;;2.48;93.07
75418;BME280;63997;52.112;5.420;2023-03-12T08:10:48;100874.81;;;2.52;93.20
75418;BME280;63997;52.112;5.420;2023-03-12T08:13:15;100869.56;;;2.52;93.15
75418;BME280;63997;52.112;5.420;2023-03-12T08:15:42;100860.13;;;2.56;93.38
75418;BME280;63997;52.112;5.420;2023-03-12T08:18:08;100856.97;;;2.59;93.47
75418;BME280;63997;52.112;5.420;2023-03-12T08:20:35;100853.53;;;2.63;93.34
75418;BME280;63997;52.112;5.420;2023-03-12T08:23:01;100861.69;;;2.67;93.65
75418;BME280;63997;52.112;5.420;2023-03-12T08:25:28;100855.91;;;2.70;93.57
75418;BME280;63997;52.112;5.420;2023-03-12T08:27:55;100859.06;;;2.72;93.75
75418;BME280;63997;52.112;5.420;2023-03-12T08:30:21;100862.72;;;2.76;93.94
75418;BME280;63997;52.112;5.420;2023-03-12T08:32:47;100861.13;;;2.80;94.07
75418;BME280;63997;52.112;5.420;2023-03-12T08:35:14;100862.16;;;2.84;93.95
75418;BME280;63997;52.112;5.420;2023-03-12T08:37:40;100859.53;;;2.89;93.91
75418;BME280;63997;52.112;5.420;2023-03-12T08:40:07;100861.38;;;2.94;94.30
75418;BME280;63997;52.112;5.420;2023-03-12T08:42:41;100859.00;;;2.98;94.14
75418;BME280;63997;52.112;5.420;2023-03-12T08:45:09;100852.13;;;3.02;94.31
75418;BME280;63997;52.112;5.420;2023-03-12T08:47:36;100851.63;;;3.05;94.39
75418;BME280;63997;52.112;5.420;2023-03-12T08:50:05;100865.53;;;3.10;94.41
75418;BME280;63997;52.112;5.420;2023-03-12T08:52:31;100864.19;;;3.13;94.32
75418;BME280;63997;52.112;5.420;2023-03-12T08:54:58;100855.22;;;3.19;94.74
75418;BME280;63997;52.112;5.420;2023-03-12T08:57:24;100861.50;;;3.28;94.60
75418;BME280;63997;52.112;5.420;2023-03-12T08:59:50;100867.81;;;3.32;94.85
75418;BME280;63997;52.112;5.420;2023-03-12T09:02:17;100870.41;;;3.37;94.83
75418;BME280;63997;52.112;5.420;2023-03-12T09:04:46;100864.09;;;3.43;94.96
75418;BME280;63997;52.112;5.420;2023-03-12T09:07:13;100872.44;;;3.51;94.85
75418;BME280;63997;52.112;5.420;2023-03-12T09:09:40;100874.78;;;3.57;95.16
75418;BME280;63997;52.112;5.420;2023-03-12T09:12:06;100871.84;;;3.64;95.09
75418;BME280;63997;52.112;5.420;2023-03-12T09:14:33;100869.16;;;3.74;95.22
75418;BME280;63997;52.112;5.420;2023-03-12T09:17:19;100852.22;;;3.90;95.49
75418;BME280;63997;52.112;5.420;2023-03-12T09:19:45;100853.72;;;4.02;95.44
75418;BME280;63997;52.112;5.420;2023-03-12T09:22:12;100847.09;;;4.09;95.64
75418;BME280;63997;52.112;5.420;2023-03-12T09:24:38;100842.81;;;4.18;95.64
75418;BME280;63997;52.112;5.420;2023-03-12T09:27:05;100858.28;;;4.25;95.67
75418;BME280;63997;52.112;5.420;2023-03-12T09:29:32;100848.78;;;4.29;95.61
75418;BME280;63997;52.112;5.420;2023-03-12T09:31:59;100839.78;;;4.35;95.70
75418;BME280;63997;52.112;5.420;2023-03-12T09:34:25;100847.59;;;4.45;95.62
75418;BME280;63997;52.112;5.420;2023-03-12T09:36:51;100838.53;;;4.57;95.83
75418;BME280;63997;52.112;5.420;2023-03-12T09:39:18;100839.94;;;4.73;95.90
75418;BME280;63997;52.112;5.420;2023-03-12T09:41:46;100851.97;;;4.84;95.80
75418;BME280;63997;52.112;5.420;2023-03-12T09:44:25;100856.53;;;4.97;95.58
75418;BME280;63997;52.112;5.420;2023-03-12T09:47:30;100853.00;;;5.07;95.86
75418;BME280;63997;52.112;5.420;2023-03-12T09:50:46;100856.88;;;5.15;95.87
75418;BME280;63997;52.112;5.420;2023-03-12T09:52:57;100863.16;;;5.19;95.88
75418;BME280;63997;52.112;5.420;2023-03-12T09:55:27;100864.44;;;5.21;95.62
75418;BME280;63997;52.112;5.420;2023-03-12T09:57:56;100857.53;;;5.25;95.61
75418;BME280;63997;52.112;5.420;2023-03-12T10:00:29;100854.00;;;5.35;95.82
75418;BME280;63997;52.112;5.420;2023-03-12T10:03:09;100868.91;;;5.45;95.79
75418;BME280;63997;52.112;5.420;2023-03-12T10:14:21;100868.34;;;5.86;95.75
75418;BME280;63997;52.112;5.420;2023-03-12T10:19:51;100866.44;;;5.91;95.67
75418;BME280;63997;52.112;5.420;2023-03-12T10:22:22;100855.03;;;5.96;95.69
75418;BME280;63997;52.112;5.420;2023-03-12T10:25:30;100851.66;;;6.09;95.80
75418;BME280;63997;52.112;5.420;2023-03-12T10:28:11;100856.88;;;6.14;95.76
75418;BME280;63997;52.112;5.420;2023-03-12T10:30:46;100855.00;;;6.15;95.63
75418;BME280;63997;52.112;5.420;2023-03-12T10:33:17;100852.59;;;6.18;95.76
75418;BME280;63997;52.112;5.420;2023-03-12T10:35:44;100859.03;;;6.26;95.60
75418;BME280;63997;52.112;5.420;2023-03-12T10:38:16;100860.44;;;6.37;95.74
75418;BME280;63997;52.112;5.420;2023-03-12T10:40:43;100856.09;;;6.46;95.68
75418;BME280;63997;52.112;5.420;2023-03-12T10:43:09;100859.59;;;6.55;95.80
75418;BME280;63997;52.112;5.420;2023-03-12T10:48:11;100851.63;;;6.74;95.82
75418;BME280;63997;52.112;5.420;2023-03-12T10:50:42;100841.03;;;6.88;96.02
75418;BME280;63997;52.112;5.420;2023-03-12T10:53:30;100847.69;;;6.99;95.81
75418;BME280;63997;52.112;5.420;2023-03-12T10:56:09;100839.88;;;7.08;95.75
75418;BME280;63997;52.112;5.420;2023-03-12T10:58:45;100841.41;;;7.23;95.82
75418;BME280;63997;52.112;5.420;2023-03-12T11:03:41;100846.50;;;7.33;95.72
75418;BME280;63997;52.112;5.420;2023-03-12T11:06:09;100845.88;;;7.50;95.86
75418;BME280;63997;52.112;5.420;2023-03-12T11:09:01;100853.19;;;7.66;95.72
75418;BME280;63997;52.112;5.420;2023-03-12T11:11:42;100852.09;;;7.67;95.67
75418;BME280;63997;52.112;5.420;2023-03-12T11:16:48;100843.94;;;7.78;95.58
75418;BME280;63997;52.112;5.420;2023-03-12T11:19:44;100854.41;;;7.83;95.45
75418;BME280;63997;52.112;5.420;2023-03-12T11:22:10;100869.41;;;7.87;95.34
75418;BME280;63997;52.112;5.420;2023-03-12T11:24:54;100870.22;;;7.96;95.22
75418;BME280;63997;52.112;5.420;2023-03-12T11:27:37;100868.25;;;8.02;95.05
75418;BME280;63997;52.112;5.420;2023-03-12T11:30:13;100867.84;;;8.09;95.16
75418;BME280;63997;52.112;5.420;2023-03-12T11:32:46;100875.69;;;8.14;95.04
75418;BME280;63997;52.112;5.420;2023-03-12T11:35:49;100869.47;;;8.18;94.89
75418;BME280;63997;52.112;5.420;2023-03-12T11:38:20;100864.03;;;8.23;94.88
75418;BME280;63997;52.112;5.420;2023-03-12T11:41:24;100865.66;;;8.33;94.75
75418;BME280;63997;52.112;5.420;2023-03-12T11:46:57;100852.63;;;8.37;94.69
75418;BME280;63997;52.112;5.420;2023-03-12T11:52:18;100864.16;;;8.41;94.44
75418;BME280;63997;52.112;5.420;2023-03-12T11:55:16;100860.16;;;8.43;94.25
75418;BME280;63997;52.112;5.420;2023-03-12T12:00:56;100852.34;;;8.47;94.21
75418;BME280;63997;52.112;5.420;2023-03-12T12:03:51;100842.72;;;8.51;94.13
75418;BME280;63997;52.112;5.420;2023-03-12T12:06:41;100844.31;;;8.61;94.07
75418;BME280;63997;52.112;5.420;2023-03-12T12:12:04;100834.56;;;8.79;94.15
75418;BME280;63997;52.112;5.420;2023-03-12T12:14:53;100836.81;;;8.94;94.15
75418;BME280;63997;52.112;5.420;2023-03-12T12:17:54;100836.03;;;9.02;93.80
75418;BME280;63997;52.112;5.420;2023-03-12T12:20:38;100841.50;;;8.97;93.57
75418;BME280;63997;52.112;5.420;2023-03-12T12:23:51;100846.16;;;8.91;93.43
75418;BME280;63997;52.112;5.420;2023-03-12T12:26:33;100843.22;;;8.93;93.13
75418;BME280;63997;52.112;5.420;2023-03-12T12:31:40;100822.03;;;9.10;92.94
75418;BME280;63997;52.112;5.420;2023-03-12T12:34:36;100814.06;;;9.19;92.93
75418;BME280;63997;52.112;5.420;2023-03-12T12:37:17;100820.03;;;9.33;92.63
75418;BME280;63997;52.112;5.420;2023-03-12T12:42:58;100810.38;;;9.54;92.09
75418;BME280;63997;52.112;5.420;2023-03-12T12:45:27;100826.16;;;9.60;91.94
75418;BME280;63997;52.112;5.420;2023-03-12T12:48:03;100828.81;;;9.60;91.43
75418;BME280;63997;52.112;5.420;2023-03-12T12:50:35;100822.41;;;9.61;91.35
75418;BME280;63997;52.112;5.420;2023-03-12T12:53:17;100824.75;;;9.62;91.16
75418;BME280;63997;52.112;5.420;2023-03-12T12:58:55;100799.25;;;9.70;90.73
75418;BME280;63997;52.112;5.420;2023-03-12T13:01:23;100796.63;;;9.78;91.01
75418;BME280;63997;52.112;5.420;2023-03-12T13:03:56;100799.09;;;9.75;90.51
75418;BME280;63997;52.112;5.420;2023-03-12T13:06:27;100799.59;;;9.68;90.08
75418;BME280;63997;52.112;5.420;2023-03-12T13:09:03;100799.13;;;9.66;89.97
75418;BME280;63997;52.112;5.420;2023-03-12T13:11:42;100786.16;;;9.73;89.89
75418;BME280;63997;52.112;5.420;2023-03-12T13:16:37;100785.84;;;9.84;88.82
75418;BME280;63997;52.112;5.420;2023-03-12T13:21:50;100804.56;;;9.87;88.89
75418;BME280;63997;52.112;5.420;2023-03-12T13:24:32;100798.00;;;9.85;88.57
75418;BME280;63997;52.112;5.420;2023-03-12T13:27:21;100787.84;;;9.87;88.11
75418;BME280;63997;52.112;5.420;2023-03-12T13:29:49;100786.91;;;9.91;88.14
75418;BME280;63997;52.112;5.420;2023-03-12T13:43:13;100788.94;;;9.86;87.38
75418;BME280;63997;52.112;5.420;2023-03-12T13:48:17;100796.25;;;10.06;86.86
75418;BME280;63997;52.112;5.420;2023-03-12T13:51:00;100815.00;;;10.27;87.46
75418;BME280;63997;52.112;5.420;2023-03-12T13:53:34;100819.28;;;10.49;85.43
75418;BME280;63997;52.112;5.420;2023-03-12T13:56:08;100806.56;;;10.63;85.97
75418;BME280;63997;52.112;5.420;2023-03-12T13:58:49;100794.16;;;10.76;85.48
75418;BME280;63997;52.112;5.420;2023-03-12T14:01:20;100793.47;;;10.88;84.04
75418;BME280;63997;52.112;5.420;2023-03-12T14:03:54;100793.09;;;10.98;84.25
75418;BME280;63997;52.112;5.420;2023-03-12T14:06:23;100787.06;;;11.09;84.02
75418;BME280;63997;52.112;5.420;2023-03-12T14:17:18;100817.47;;;11.50;79.82
75418;BME280;63997;52.112;5.420;2023-03-12T14:20:13;100799.69;;;11.42;79.69
75418;BME280;63997;52.112;5.420;2023-03-12T14:22:42;100808.00;;;11.41;79.90
75418;BME280;63997;52.112;5.420;2023-03-12T14:25:33;100821.94;;;11.37;79.42
75418;BME280;63997;52.112;5.420;2023-03-12T14:28:08;100833.72;;;11.36;79.20